Time;durP1;ratioP1;P1;durP2;ratioP2;P2;SDS_P1;SDS_P2;PMS_P1;PMS_P2;Temp;Humidity;BMP_temperature;BMP_pressure;BME280_temperature;BME280_humidity;BME280_pressure;Samples;Min_cycle;Max_cycle;Signal;HPM_P1;HPM_P2
2023/03/18 00:00:09;;;;;;;16.85;7.43;;;;;;;5.56;59.50;100243.09;4393612;32;20089;-85
2023/03/18 00:02:38;;;;;;;15.63;8.27;;;;;;;5.54;59.50;100231.91;4393661;32;20109;-85
2023/03/18 00:05:04;;;;;;;16.13;8.10;;;;;;;5.43;59.49;100234.50;4368822;32;20098;-85
2023/03/18 00:07:30;;;;;;;20.45;8.02;;;;;;;5.32;59.49;100231.13;4380720;32;20150;-85
2023/03/18 00:09:55;;;;;;;16.70;8.70;;;;;;;5.37;59.49;100231.09;4380944;32;20141;-84
2023/03/18 00:12:21;;;;;;;18.87;8.52;;;;;;;5.35;59.49;100228.53;4393657;32;20157;-84
2023/03/18 00:14:47;;;;;;;17.77;8.35;;;;;;;5.30;59.48;100222.53;4368611;32;20181;-84
2023/03/18 00:17:12;;;;;;;25.45;8.43;;;;;;;5.29;59.48;100214.78;4393542;32;20090;-84
2023/03/18 00:19:38;;;;;;;18.12;7.75;;;;;;;5.30;59.49;100213.94;4381224;32;20142;-84
2023/03/18 00:22:03;;;;;;;20.90;9.13;;;;;;;5.28;59.48;100213.06;4393024;32;23918;-84
2023/03/18 00:24:29;;;;;;;16.45;8.43;;;;;;;5.19;59.48;100214.81;4368587;32;20498;-84
2023/03/18 00:26:54;;;;;;;16.48;8.10;;;;;;;5.21;59.48;100213.09;4381316;32;20091;-84
2023/03/18 00:29:20;;;;;;;16.67;8.02;;;;;;;5.11;59.48;100213.97;4383250;32;20145;-84
2023/03/18 00:31:45;;;;;;;15.23;7.47;;;;;;;5.00;59.46;100214.88;4380914;32;20145;-84
2023/03/18 00:34:11;;;;;;;14.25;7.45;;;;;;;5.01;59.47;100217.44;4380989;32;20113;-83
2023/03/18 00:36:38;;;;;;;17.27;7.47;;;;;;;4.99;59.46;100216.59;4380887;32;20094;-84
2023/03/18 00:39:04;;;;;;;19.17;7.45;;;;;;;4.97;59.47;100213.16;4381323;32;20148;-83
2023/03/18 00:41:31;;;;;;;17.83;7.72;;;;;;;4.98;59.46;100214.88;4380781;32;20122;-83
2023/03/18 00:43:57;;;;;;;14.20;7.53;;;;;;;4.90;59.46;100222.59;4394254;32;20139;-83
2023/03/18 00:46:33;;;;;;;16.50;6.97;;;;;;;4.91;59.46;100216.59;4382179;32;20097;-84
2023/03/18 00:49:00;;;;;;;14.50;6.47;;;;;;;4.98;59.46;100214.03;4379689;32;20160;-83
2023/03/18 00:51:27;;;;;;;14.98;6.85;;;;;;;4.91;59.46;100208.84;4354144;32;20110;-83
2023/03/18 00:53:55;;;;;;;15.05;6.68;;;;;;;4.89;59.46;100208.00;4367545;32;20172;-85
2023/03/18 00:56:22;;;;;;;23.70;8.55;;;;;;;4.89;59.46;100209.72;4367393;32;20462;-84
2023/03/18 00:58:49;;;;;;;14.48;6.20;;;;;;;4.82;59.46;100206.28;4367120;32;20709;-84
2023/03/18 01:01:14;;;;;;;16.98;7.00;;;;;;;4.79;59.46;100202.87;4367311;32;20102;-84
2023/03/18 01:03:43;;;;;;;17.80;6.22;;;;;;;4.71;59.44;100205.44;4367302;32;20117;-84
2023/03/18 01:06:14;;;;;;;12.20;6.30;;;;;;;4.69;59.45;100194.25;4369945;32;20090;-84
2023/03/18 01:08:40;;;;;;;19.50;7.47;;;;;;;4.68;59.45;100199.44;4366963;32;20095;-84
2023/03/18 01:11:05;;;;;;;14.35;6.72;;;;;;;4.69;59.45;100194.25;4354695;32;20099;-84
2023/03/18 01:13:32;;;;;;;17.62;5.85;;;;;;;4.65;59.45;100186.53;4366835;32;20106;-84
2023/03/18 01:15:57;;;;;;;15.48;6.87;;;;;;;4.59;59.44;100188.28;4379487;32;20089;-84
2023/03/18 01:18:22;;;;;;;11.18;5.78;;;;;;;4.69;59.45;100195.97;4366766;32;20120;-84
2023/03/18 01:20:48;;;;;;;15.40;6.32;;;;;;;4.53;59.44;100190.84;4379307;32;20122;-84
2023/03/18 01:23:14;;;;;;;13.23;6.12;;;;;;;4.49;59.44;100188.25;4379405;32;20114;-84
2023/03/18 01:25:39;;;;;;;12.07;5.25;;;;;;;4.49;59.44;100181.38;4380244;32;20090;-83
2023/03/18 01:28:05;;;;;;;16.33;5.78;;;;;;;4.40;59.43;100183.13;4366421;32;20099;-83
2023/03/18 01:30:30;;;;;;;13.43;5.72;;;;;;;4.38;59.43;100177.09;4366806;32;20601;-84
2023/03/18 01:32:56;;;;;;;11.23;5.78;;;;;;;4.27;59.43;100171.97;4354414;32;20197;-84
2023/03/18 01:35:22;;;;;;;10.65;5.15;;;;;;;4.26;59.42;100162.53;4379179;32;20098;-83
2023/03/18 01:37:47;;;;;;;12.10;5.55;;;;;;;4.29;59.43;100158.22;4366465;32;20063;-83
2023/03/18 01:40:13;;;;;;;9.88;4.60;;;;;;;4.30;59.43;100157.38;4366018;32;22485;-83
2023/03/18 01:42:39;;;;;;;11.50;4.12;;;;;;;4.42;59.43;100158.19;4366370;32;20153;-83
2023/03/18 01:45:16;;;;;;;9.68;4.00;;;;;;;4.37;59.43;100165.09;4366316;32;20093;-84
2023/03/18 01:47:45;;;;;;;9.00;3.55;;;;;;;4.46;59.43;100158.19;4366309;32;20512;-84
2023/03/18 01:50:11;;;;;;;9.65;4.00;;;;;;;4.45;59.43;100153.91;4385975;32;20420;-83
2023/03/18 01:52:37;;;;;;;11.18;4.72;;;;;;;4.38;59.43;100151.34;4378744;32;20110;-83
2023/03/18 01:55:07;;;;;;;10.30;3.90;;;;;;;4.42;59.44;100153.91;4378797;32;20142;-83
2023/03/18 01:57:32;;;;;;;11.07;4.45;;;;;;;4.42;59.44;100151.31;4366427;32;20125;-83
2023/03/18 01:59:58;;;;;;;10.32;4.12;;;;;;;4.44;59.44;100156.47;4378703;32;20106;-83
2023/03/18 02:02:24;;;;;;;9.18;4.55;;;;;;;4.49;59.44;100153.03;4378684;32;20144;-83
2023/03/18 02:04:51;;;;;;;7.37;3.62;;;;;;;4.50;59.44;100147.03;4380024;32;20106;-84
2023/03/18 02:07:28;;;;;;;6.60;3.87;;;;;;;4.44;59.44;100151.31;4380953;32;20118;-84
2023/03/18 02:09:54;;;;;;;7.82;3.60;;;;;;;4.48;59.44;100151.31;4369533;32;20438;-84
2023/03/18 02:12:32;;;;;;;8.45;3.60;;;;;;;4.49;59.44;100154.75;4368371;32;20106;-83
2023/03/18 02:14:58;;;;;;;9.32;3.72;;;;;;;4.46;59.43;100150.47;4368348;32;20169;-83
2023/03/18 02:17:25;;;;;;;9.20;3.45;;;;;;;4.45;59.43;100150.47;4367580;32;20103;-84
2023/03/18 02:20:12;;;;;;;7.82;3.70;;;;;;;4.43;59.44;100147.88;4368159;32;20111;-84
2023/03/18 02:22:40;;;;;;;6.28;3.62;;;;;;;4.45;59.43;100148.75;4380663;32;20467;-83
2023/03/18 02:25:25;;;;;;;7.97;3.50;;;;;;;4.48;59.44;100153.03;4368376;32;20117;-84
2023/03/18 02:27:53;;;;;;;9.75;3.15;;;;;;;4.59;59.44;100148.75;4368084;32;20387;-84
2023/03/18 02:30:24;;;;;;;9.00;3.35;;;;;;;4.46;59.44;100145.31;4367944;32;20115;-84
2023/03/18 02:32:50;;;;;;;7.53;3.35;;;;;;;4.47;59.43;100147.03;4380763;32;20132;-85
2023/03/18 02:35:16;;;;;;;8.10;3.22;;;;;;;4.45;59.43;100146.16;4368118;32;20094;-82
2023/03/18 02:37:41;;;;;;;6.12;2.58;;;;;;;4.46;59.43;100147.88;4379876;32;24908;-84
2023/03/18 02:40:15;;;;;;;6.72;2.83;;;;;;;4.45;59.43;100147.88;4367527;32;24445;-84
2023/03/18 02:42:41;;;;;;;7.80;3.03;;;;;;;4.40;59.43;100147.91;4380286;32;20126;-84
2023/03/18 02:45:08;;;;;;;7.90;3.45;;;;;;;4.43;59.44;100147.88;4380480;32;20125;-84
2023/03/18 02:47:34;;;;;;;8.02;2.60;;;;;;;4.43;59.44;100153.03;4368264;32;20211;-84
2023/03/18 02:49:59;;;;;;;8.40;3.30;;;;;;;4.41;59.43;100148.75;4394999;32;20115;-84
2023/03/18 02:52:25;;;;;;;6.97;3.42;;;;;;;4.44;59.44;100143.59;4383104;32;20421;-83
2023/03/18 02:54:51;;;;;;;5.72;3.10;;;;;;;4.44;59.43;100154.75;4382878;32;20196;-84
2023/03/18 02:57:16;;;;;;;7.50;3.35;;;;;;;4.21;59.42;100156.47;4370491;32;20133;-84
2023/03/18 02:59:41;;;;;;;7.62;2.85;;;;;;;4.14;59.42;100154.78;4382416;32;22353;-84
2023/03/18 03:02:07;;;;;;;8.25;3.40;;;;;;;4.18;59.42;100147.03;4369801;32;26010;-84
2023/03/18 03:04:32;;;;;;;8.05;3.40;;;;;;;4.13;59.42;100143.59;4382447;32;20136;-84
2023/03/18 03:06:58;;;;;;;7.90;2.97;;;;;;;4.16;59.42;100148.75;4395489;32;20397;-84
2023/03/18 03:09:23;;;;;;;13.95;3.25;;;;;;;4.24;59.42;100148.75;4409238;32;20102;-84
2023/03/18 03:11:49;;;;;;;7.25;3.12;;;;;;;4.17;59.42;100144.47;4409272;32;20142;-84
2023/03/18 03:14:15;;;;;;;6.85;2.80;;;;;;;4.18;59.42;100143.59;4394953;32;20105;-84
2023/03/18 03:16:40;;;;;;;8.18;3.80;;;;;;;4.20;59.42;100149.63;4382950;32;20483;-83
2023/03/18 03:19:06;;;;;;;6.82;2.97;;;;;;;4.13;59.42;100146.19;4382711;32;20198;-84
2023/03/18 03:21:32;;;;;;;9.15;2.87;;;;;;;4.10;59.42;100147.91;4382757;32;20163;-83
2023/03/18 03:23:58;;;;;;;5.57;3.10;;;;;;;4.16;59.42;100153.91;4382869;32;20158;-84
2023/03/18 03:26:23;;;;;;;11.43;3.55;;;;;;;4.00;59.41;100153.03;4382902;32;20094;-83
2023/03/18 03:28:49;;;;;;;6.43;3.12;;;;;;;3.95;59.41;100154.75;4395244;32;20126;-84
2023/03/18 03:31:15;;;;;;;7.50;3.55;;;;;;;3.92;59.41;100159.91;4382926;32;20221;-83
2023/03/18 03:33:42;;;;;;;12.73;4.18;;;;;;;3.99;59.41;100161.63;4382885;32;20139;-84
2023/03/18 03:36:09;;;;;;;6.93;3.40;;;;;;;3.95;59.40;100165.06;4370538;32;20106;-84
2023/03/18 03:38:34;;;;;;;6.55;3.40;;;;;;;3.94;59.40;100163.34;4382626;32;20168;-84
2023/03/18 03:41:01;;;;;;;6.85;3.45;;;;;;;3.89;59.40;100170.19;4395006;32;20146;-84
2023/03/18 03:43:26;;;;;;;9.48;3.87;;;;;;;3.89;59.40;100170.19;4409005;32;20179;-83
2023/03/18 03:45:52;;;;;;;8.73;3.40;;;;;;;3.85;59.40;100171.06;4382746;32;20090;-84
2023/03/18 03:48:17;;;;;;;10.85;3.50;;;;;;;3.78;59.40;100182.19;4382008;32;22233;-83
2023/03/18 03:50:42;;;;;;;10.20;4.20;;;;;;;3.80;59.39;100175.34;4395091;32;20157;-83
2023/03/18 03:53:09;;;;;;;6.07;3.37;;;;;;;3.80;59.40;100170.19;4408761;32;23085;-84
2023/03/18 03:55:34;;;;;;;8.50;3.50;;;;;;;3.72;59.39;100178.75;4408985;32;20081;-83
2023/03/18 03:58:00;;;;;;;13.90;4.32;;;;;;;3.67;59.38;100177.00;4381852;32;20165;-85
2023/03/18 04:00:25;;;;;;;15.50;4.30;;;;;;;3.72;59.39;100171.88;4380525;32;20106;-84
2023/03/18 04:02:51;;;;;;;10.77;4.57;;;;;;;3.69;59.39;100175.31;4405772;32;20152;-83
2023/03/18 04:05:17;;;;;;;10.80;4.37;;;;;;;3.64;59.39;100176.16;4378870;32;20102;-84
2023/03/18 04:07:43;;;;;;;13.23;4.55;;;;;;;3.63;59.38;100169.28;4393173;32;20130;-84
2023/03/18 04:10:13;;;;;;;13.32;4.85;;;;;;;3.63;59.39;100177.88;4394670;32;20455;-85
2023/03/18 04:12:39;;;;;;;10.77;4.85;;;;;;;3.59;59.38;100172.72;4394429;32;20403;-85
2023/03/18 04:15:05;;;;;;;12.10;4.95;;;;;;;3.59;59.39;100173.56;4380767;32;20121;-85
2023/03/18 04:17:31;;;;;;;10.43;4.45;;;;;;;3.61;59.39;100178.72;4392355;32;20102;-84
2023/03/18 04:19:57;;;;;;;11.23;4.62;;;;;;;3.60;59.38;100171.84;4391146;32;20132;-85
2023/03/18 04:22:22;;;;;;;13.25;4.78;;;;;;;3.62;59.39;100176.16;4391228;32;20094;-85
2023/03/18 04:24:48;;;;;;;10.80;4.75;;;;;;;3.51;59.37;100182.97;4405312;32;20102;-85
2023/03/18 04:27:13;;;;;;;13.52;4.97;;;;;;;3.57;59.38;100174.44;4390374;32;20102;-85
2023/03/18 04:29:39;;;;;;;8.55;4.50;;;;;;;3.58;59.38;100181.28;4379182;32;20102;-85
2023/03/18 04:32:05;;;;;;;12.40;5.10;;;;;;;3.64;59.39;100176.16;4378917;32;20094;-86
2023/03/18 04:34:30;;;;;;;11.07;4.85;;;;;;;3.60;59.38;100179.59;4378979;32;20094;-85
2023/03/18 04:36:56;;;;;;;10.40;4.93;;;;;;;3.52;59.37;100184.69;4391695;32;20154;-85
2023/03/18 04:39:22;;;;;;;12.45;4.45;;;;;;;3.48;59.38;100185.53;4390935;32;20121;-85
2023/03/18 04:41:47;;;;;;;9.10;4.35;;;;;;;3.57;59.38;100188.16;4378469;32;20185;-86
2023/03/18 04:44:13;;;;;;;8.98;4.32;;;;;;;3.48;59.37;100190.69;4391482;32;20155;-86
2023/03/18 04:46:38;;;;;;;10.90;5.30;;;;;;;3.50;59.37;100196.69;4406379;32;20114;-85
2023/03/18 04:49:04;;;;;;;15.23;5.25;;;;;;;3.49;59.38;100192.41;4381120;32;20195;-85
2023/03/18 04:51:29;;;;;;;10.77;4.95;;;;;;;3.49;59.37;100191.53;4394044;32;20147;-84
2023/03/18 04:53:55;;;;;;;12.80;4.75;;;;;;;3.52;59.38;100197.56;4407726;32;20133;-86
2023/03/18 04:56:20;;;;;;;11.80;4.35;;;;;;;3.58;59.38;100199.31;4394071;32;20497;-85
2023/03/18 04:58:46;;;;;;;9.23;4.47;;;;;;;3.62;59.38;100193.31;4394886;32;20490;-84
2023/03/18 05:01:12;;;;;;;12.80;4.82;;;;;;;3.55;59.38;100196.69;4393906;32;20183;-85
2023/03/18 05:03:38;;;;;;;11.35;4.72;;;;;;;3.61;59.39;100194.16;4381768;32;20146;-85
2023/03/18 05:06:03;;;;;;;9.43;5.07;;;;;;;3.55;59.39;100195.00;4381737;32;20137;-85
2023/03/18 05:08:29;;;;;;;13.98;5.68;;;;;;;3.65;59.39;100208.75;4408194;32;20094;-85
2023/03/18 05:10:54;;;;;;;11.93;5.18;;;;;;;3.66;59.39;100197.59;4381338;32;20119;-86
2023/03/18 05:13:19;;;;;;;12.95;5.40;;;;;;;3.84;59.40;100201.97;4394267;32;20115;-86
2023/03/18 05:15:45;;;;;;;12.90;5.35;;;;;;;3.96;59.40;100205.41;4393413;32;22302;-86
2023/03/18 05:18:11;;;;;;;12.63;5.45;;;;;;;4.05;59.41;100198.56;4381094;32;20254;-86
2023/03/18 05:20:37;;;;;;;13.10;5.47;;;;;;;4.10;59.41;100204.59;4394159;32;20089;-86
2023/03/18 05:23:03;;;;;;;12.40;5.50;;;;;;;4.21;59.42;100203.72;4394022;32;20129;-86
2023/03/18 05:25:28;;;;;;;13.43;5.97;;;;;;;4.23;59.42;100206.28;4393924;32;20114;-86
2023/03/18 05:27:53;;;;;;;17.37;6.40;;;;;;;4.46;59.43;100202.00;4393861;32;20085;-86
2023/03/18 05:30:19;;;;;;;17.58;7.03;;;;;;;4.49;59.44;100206.31;4407615;32;20149;-86
2023/03/18 05:32:45;;;;;;;23.17;8.63;;;;;;;4.57;59.44;100208.03;4393860;32;20125;-86
2023/03/18 05:35:10;;;;;;;29.58;9.95;;;;;;;4.60;59.44;100207.19;4381553;32;20192;-85
2023/03/18 05:37:36;;;;;;;17.40;6.97;;;;;;;4.74;59.45;100212.34;4394348;32;20120;-87
2023/03/18 05:40:03;;;;;;;17.00;6.22;;;;;;;4.93;59.46;100214.84;4395647;32;20169;-86
2023/03/18 05:42:28;;;;;;;10.20;5.62;;;;;;;4.97;59.46;100215.75;4395986;32;20494;-87
2023/03/18 05:44:55;;;;;;;12.35;5.55;;;;;;;5.29;59.48;100214.78;4383052;32;20110;-86
2023/03/18 05:47:21;;;;;;;12.95;5.32;;;;;;;5.32;59.49;100215.62;4383079;32;20179;-86
2023/03/18 05:49:47;;;;;;;9.50;5.50;;;;;;;5.30;59.48;100219.94;4382897;32;20458;-86
2023/03/18 05:52:12;;;;;;;13.77;6.00;;;;;;;5.34;59.48;100211.31;4383032;32;20098;-85
2023/03/18 05:54:38;;;;;;;8.82;5.43;;;;;;;5.44;59.48;100219.87;4382998;32;20098;-85
2023/03/18 05:57:03;;;;;;;11.15;5.35;;;;;;;5.37;59.49;100213.03;4382962;32;20172;-86
2023/03/18 05:59:30;;;;;;;13.07;5.65;;;;;;;5.51;59.50;100216.44;4382436;32;20089;-86
2023/03/18 06:01:55;;;;;;;16.58;6.87;;;;;;;5.46;59.50;100213.87;4383192;32;20125;-86
2023/03/18 06:04:21;;;;;;;11.95;5.65;;;;;;;5.66;59.50;100220.66;4382890;32;20503;-86
2023/03/18 06:06:47;;;;;;;12.45;5.47;;;;;;;5.73;59.51;100218.06;4383428;32;20174;-86
2023/03/18 06:09:12;;;;;;;13.95;6.03;;;;;;;5.65;59.50;100226.69;4383260;32;20141;-86
2023/03/18 06:11:38;;;;;;;14.10;5.37;;;;;;;5.65;59.50;100227.53;4383314;32;20336;-86
2023/03/18 06:14:04;;;;;;;11.70;5.57;;;;;;;5.81;59.51;100216.28;4383290;32;20119;-86
2023/03/18 06:16:30;;;;;;;11.73;6.22;;;;;;;5.92;59.52;100225.75;4409646;32;20147;-85
2023/03/18 06:18:56;;;;;;;13.13;5.32;;;;;;;5.98;59.51;100228.28;4383143;32;20133;-85
2023/03/18 06:21:22;;;;;;;13.85;5.68;;;;;;;6.08;59.53;100229.94;4409328;32;20094;-85
2023/03/18 06:23:47;;;;;;;10.35;5.35;;;;;;;6.24;59.53;100229.00;4382552;32;20124;-85
2023/03/18 06:26:12;;;;;;;13.05;5.78;;;;;;;6.29;59.54;100232.41;4383169;32;20149;-86
2023/03/18 06:28:38;;;;;;;11.88;5.53;;;;;;;6.35;59.55;100227.16;4382633;32;20109;-85
2023/03/18 06:31:04;;;;;;;12.35;5.70;;;;;;;6.47;59.55;100226.25;4395608;32;20093;-85
2023/03/18 06:33:29;;;;;;;12.45;5.97;;;;;;;6.43;59.55;100232.31;4395469;32;21516;-86
2023/03/18 06:35:55;;;;;;;13.32;5.85;;;;;;;6.47;59.55;100234.84;4382814;32;24094;-84
2023/03/18 06:38:20;;;;;;;21.05;8.45;;;;;;;6.72;59.56;100242.41;4381078;32;20628;-85
2023/03/18 06:40:46;;;;;;;30.12;14.02;;;;;;;6.74;59.57;100245.84;4394545;32;20098;-86
2023/03/18 06:43:11;;;;;;;63.08;22.80;;;;;;;6.91;59.57;100249.16;4381631;32;20154;-85
2023/03/18 06:45:37;;;;;;;88.65;32.47;;;;;;;6.86;59.57;100245.75;4394716;32;20196;-85
2023/03/18 06:48:02;;;;;;;76.87;28.55;;;;;;;7.01;59.57;100253.34;4382139;32;20137;-85
2023/03/18 06:50:29;;;;;;;63.08;24.33;;;;;;;7.18;59.59;100254.94;4394566;32;20153;-86
2023/03/18 06:52:54;;;;;;;52.03;20.73;;;;;;;6.99;59.58;100254.25;4395962;32;20132;-85
2023/03/18 06:55:20;;;;;;;37.25;16.42;;;;;;;7.05;59.58;100251.59;4383042;32;20106;-86
2023/03/18 06:57:46;;;;;;;36.13;16.45;;;;;;;7.17;59.58;100255.81;4383152;32;20149;-85
2023/03/18 07:00:12;;;;;;;33.20;13.95;;;;;;;7.25;59.60;100248.81;4383477;32;20451;-86
2023/03/18 07:02:38;;;;;;;20.77;9.43;;;;;;;7.44;59.60;100252.06;4395999;32;20110;-86
2023/03/18 07:05:03;;;;;;;17.23;8.07;;;;;;;7.57;59.61;100246.72;4395559;32;20466;-85
2023/03/18 07:07:29;;;;;;;13.30;7.12;;;;;;;7.56;59.61;100252.75;4383143;32;20117;-86
2023/03/18 07:09:54;;;;;;;16.05;7.43;;;;;;;7.76;59.62;100249.06;4383248;32;20101;-86
2023/03/18 07:12:20;;;;;;;15.18;6.78;;;;;;;7.82;59.62;100255.06;4395700;32;20132;-86
2023/03/18 07:14:45;;;;;;;13.25;6.28;;;;;;;7.99;59.64;100245.31;4382799;32;20097;-86
2023/03/18 07:17:11;;;;;;;12.35;5.68;;;;;;;7.85;59.63;100242.06;4409339;32;20171;-86
2023/03/18 07:19:36;;;;;;;17.33;7.00;;;;;;;8.21;59.65;100245.88;4395413;32;20097;-86
2023/03/18 07:22:03;;;;;;;12.73;6.60;;;;;;;8.44;59.67;100242.97;4394829;32;20174;-86
2023/03/18 07:24:29;;;;;;;14.00;6.78;;;;;;;8.48;59.66;100241.16;4395691;32;20170;-86
2023/03/18 07:26:54;;;;;;;10.75;5.00;;;;;;;8.39;59.66;100239.59;4382972;32;20426;-85
2023/03/18 07:29:20;;;;;;;14.20;4.35;;;;;;;8.68;59.67;100246.91;4383199;32;20130;-85
2023/03/18 07:31:45;;;;;;;11.65;4.78;;;;;;;8.68;59.68;100239.12;4382997;32;23557;-86
2023/03/18 07:34:11;;;;;;;10.20;4.75;;;;;;;8.79;59.68;100237.22;4383514;32;20160;-86
2023/03/18 07:36:37;;;;;;;12.07;6.18;;;;;;;8.88;59.69;100239.66;4382735;32;20102;-84
2023/03/18 07:39:04;;;;;;;11.75;5.40;;;;;;;9.03;59.71;100251.50;4382528;32;20138;-84
2023/03/18 07:41:29;;;;;;;11.88;4.32;;;;;;;9.04;59.70;100253.22;4382670;32;20168;-85
2023/03/18 07:43:55;;;;;;;10.85;5.68;;;;;;;9.24;59.70;100250.28;4382420;32;20487;-84
2023/03/18 07:46:21;;;;;;;11.15;5.57;;;;;;;9.23;59.71;100254.63;4370097;32;20154;-84
2023/03/18 07:48:46;;;;;;;14.87;5.95;;;;;;;9.46;59.72;100255.88;4395127;32;20108;-84
2023/03/18 07:51:13;;;;;;;13.05;5.37;;;;;;;9.53;59.72;100260.09;4395196;32;20506;-84
2023/03/18 07:53:39;;;;;;;9.55;5.55;;;;;;;9.57;59.73;100255.69;4383253;32;20609;-84
2023/03/18 07:56:06;;;;;;;11.55;4.97;;;;;;;9.67;59.73;100252.00;4382626;32;20102;-84
2023/03/18 07:58:32;;;;;;;12.50;5.80;;;;;;;9.79;59.74;100251.78;4395400;32;20114;-84
2023/03/18 08:00:58;;;;;;;15.13;5.97;;;;;;;9.84;59.74;100247.34;4395457;32;20161;-84
2023/03/18 08:03:24;;;;;;;10.40;5.10;;;;;;;9.91;59.74;100254.09;4382670;32;20121;-85
2023/03/18 08:05:50;;;;;;;14.27;5.53;;;;;;;9.96;59.75;100254.88;4381717;32;26166;-84
2023/03/18 08:08:15;;;;;;;12.02;5.20;;;;;;;10.17;59.76;100253.53;4383225;32;20087;-85
2023/03/18 08:10:41;;;;;;;9.13;5.45;;;;;;;10.12;59.76;100245.84;4395169;32;20154;-84
2023/03/18 08:13:06;;;;;;;14.00;5.30;;;;;;;10.16;59.76;100254.44;4395114;32;20109;-86
2023/03/18 08:15:32;;;;;;;11.77;5.47;;;;;;;10.23;59.76;100250.00;4395144;32;20167;-85
2023/03/18 08:17:57;;;;;;;18.00;5.70;;;;;;;10.16;59.75;100246.63;4394984;32;20134;-84
2023/03/18 08:20:23;;;;;;;15.18;5.65;;;;;;;10.28;59.76;100246.41;4395139;32;20106;-85
2023/03/18 08:22:49;;;;;;;10.60;5.20;;;;;;;10.18;59.76;100244.88;4408972;32;20178;-85
2023/03/18 08:25:14;;;;;;;8.35;5.55;;;;;;;10.57;59.79;100243.09;4395196;32;20101;-85
2023/03/18 08:27:39;;;;;;;15.48;6.53;;;;;;;10.58;59.78;100242.22;4409163;32;20074;-84
2023/03/18 08:30:05;;;;;;;13.00;5.18;;;;;;;10.65;59.78;100245.53;4395045;32;20099;-84
2023/03/18 08:32:31;;;;;;;11.38;6.05;;;;;;;10.75;59.79;100247.00;4395223;32;20121;-85
2023/03/18 08:34:56;;;;;;;12.25;5.30;;;;;;;10.87;59.80;100244.09;4382329;32;20140;-84
2023/03/18 08:37:22;;;;;;;11.32;5.20;;;;;;;11.11;59.81;100242.59;4394731;32;20161;-84
2023/03/18 08:39:47;;;;;;;12.90;6.50;;;;;;;11.18;59.81;100236.34;4382925;32;20184;-84
2023/03/18 08:42:13;;;;;;;10.10;4.72;;;;;;;11.29;59.83;100236.91;4382254;32;20149;-85
2023/03/18 08:44:39;;;;;;;11.48;5.70;;;;;;;11.40;59.83;100228.81;4382420;32;20094;-85
2023/03/18 08:47:05;;;;;;;9.15;5.30;;;;;;;11.46;59.83;100227.78;4394549;32;20424;-84
2023/03/18 08:49:30;;;;;;;10.30;3.90;;;;;;;11.63;59.84;100229.03;4394685;32;20418;-84
2023/03/18 08:51:56;;;;;;;6.87;4.28;;;;;;;11.72;59.85;100240.94;4394730;32;20113;-84
2023/03/18 08:54:21;;;;;;;8.77;4.87;;;;;;;11.76;59.85;100237.31;4408306;32;20168;-84
2023/03/18 08:56:47;;;;;;;12.88;4.18;;;;;;;11.94;59.86;100226.38;4394529;32;20356;-84
2023/03/18 08:59:12;;;;;;;9.13;4.90;;;;;;;12.03;59.86;100229.63;4381776;32;20106;-84
2023/03/18 09:01:38;;;;;;;7.70;3.90;;;;;;;11.73;59.84;100239.16;4381795;32;20134;-84
2023/03/18 09:04:03;;;;;;;10.50;4.72;;;;;;;11.82;59.86;100228.50;4382209;32;20172;-84
2023/03/18 09:06:29;;;;;;;10.55;4.80;;;;;;;12.18;59.87;100234.38;4381423;32;20429;-84
2023/03/18 09:08:54;;;;;;;9.23;4.30;;;;;;;12.37;59.89;100226.84;4394323;32;20154;-85
2023/03/18 09:11:20;;;;;;;8.40;4.78;;;;;;;12.64;59.89;100222.47;4408255;32;20120;-85
2023/03/18 09:13:46;;;;;;;7.03;3.72;;;;;;;12.84;59.91;100228.75;4381351;32;20474;-84
2023/03/18 09:16:11;;;;;;;8.63;3.97;;;;;;;12.80;59.91;100229.75;4394404;32;20161;-85
2023/03/18 09:18:38;;;;;;;9.52;4.40;;;;;;;13.01;59.92;100216.84;4381650;32;20133;-84
2023/03/18 09:21:03;;;;;;;6.90;4.15;;;;;;;13.05;59.92;100206.25;4381789;32;20543;-84
2023/03/18 09:23:30;;;;;;;6.55;4.47;;;;;;;13.15;59.92;100210.25;4381561;32;20090;-84
2023/03/18 09:25:56;;;;;;;8.38;4.68;;;;;;;13.18;59.94;100212.78;4382114;32;20081;-84
2023/03/18 09:28:21;;;;;;;6.78;4.40;;;;;;;13.25;59.93;100208.22;4393976;32;20545;-85
2023/03/18 09:30:47;;;;;;;8.27;3.78;;;;;;;13.37;59.94;100205.12;4381794;32;20128;-84
2023/03/18 09:33:12;;;;;;;6.80;3.90;;;;;;;13.58;59.96;100203.50;4381570;32;20120;-85
2023/03/18 09:35:38;;;;;;;7.43;4.37;;;;;;;13.81;59.97;100197.41;4381024;32;22967;-84
2023/03/18 09:38:04;;;;;;;11.60;4.72;;;;;;;13.91;59.97;100198.75;4381327;32;20128;-84
2023/03/18 09:40:36;;;;;;;7.55;3.90;;;;;;;14.05;59.97;100201.69;4394104;32;20102;-85
2023/03/18 09:43:32;;;;;;;6.32;3.65;;;;;;;14.21;59.99;100193.25;4393732;32;20420;-84
2023/03/18 09:46:12;;;;;;;8.57;4.62;;;;;;;14.23;59.98;100192.28;4393805;32;20481;-85
2023/03/18 09:48:43;;;;;;;6.15;3.40;;;;;;;14.35;60.00;100190.91;4381281;32;20090;-85
2023/03/18 09:51:36;;;;;;;9.68;3.95;;;;;;;14.50;60.00;100186.88;4407847;32;20172;-85
2023/03/18 09:54:22;;;;;;;7.10;4.15;;;;;;;14.58;60.00;100190.84;4396383;32;20086;-84
2023/03/18 09:56:48;;;;;;;6.75;3.75;;;;;;;14.74;60.01;100191.94;4395627;32;20144;-85
2023/03/18 09:59:23;;;;;;;8.70;4.43;;;;;;;14.83;60.01;100188.06;4367965;32;24020;-84
2023/03/18 10:01:52;;;;;;;8.80;4.15;;;;;;;15.07;60.03;100186.16;4393842;32;20128;-84
2023/03/18 10:04:40;;;;;;;8.88;4.40;;;;;;;15.09;60.02;100183.47;4381620;32;20161;-84
2023/03/18 10:07:10;;;;;;;10.95;4.37;;;;;;;15.12;60.04;100186.81;4368608;32;20120;-84
2023/03/18 10:09:43;;;;;;;13.75;4.70;;;;;;;14.69;60.01;100187.81;4381271;32;20132;-84
2023/03/18 10:12:44;;;;;;;11.98;4.65;;;;;;;15.06;60.04;100179.22;4381444;32;20390;-84
2023/03/18 10:15:37;;;;;;;7.55;4.53;;;;;;;15.13;60.03;100174.53;4361385;32;20090;-84
2023/03/18 10:18:14;;;;;;;8.77;4.70;;;;;;;15.28;60.04;100176.50;4378005;32;20445;-84
2023/03/18 10:20:39;;;;;;;8.20;4.80;;;;;;;15.49;60.06;100167.66;4407376;32;20110;-84
2023/03/18 10:23:26;;;;;;;7.73;4.17;;;;;;;15.45;60.05;100158.25;4393286;32;20147;-85
2023/03/18 10:25:53;;;;;;;12.40;4.28;;;;;;;15.56;60.06;100155.09;4374019;32;20190;-84
2023/03/18 10:28:22;;;;;;;8.43;4.62;;;;;;;15.40;60.06;100162.00;4383071;32;20472;-85
2023/03/18 10:31:07;;;;;;;9.57;3.85;;;;;;;15.60;60.06;100157.53;4395672;32;20114;-84
2023/03/18 10:33:45;;;;;;;7.70;3.70;;;;;;;15.66;60.07;100153.81;4395642;32;20505;-84
2023/03/18 10:36:42;;;;;;;6.25;3.65;;;;;;;15.90;60.07;100152.66;4396234;32;20212;-85
2023/03/18 10:39:16;;;;;;;5.32;2.78;;;;;;;16.00;60.08;100154.84;4397788;32;20098;-84
2023/03/18 10:41:42;;;;;;;7.45;3.83;;;;;;;15.99;60.08;100151.38;4383072;32;20482;-84
2023/03/18 10:44:19;;;;;;;6.45;3.58;;;;;;;16.01;60.09;100152.13;4383164;32;20132;-85
2023/03/18 10:46:45;;;;;;;5.70;3.67;;;;;;;16.09;60.08;100150.00;4395528;32;20124;-84
2023/03/18 10:49:19;;;;;;;5.35;3.30;;;;;;;16.10;60.09;100151.72;4382870;32;20434;-84
2023/03/18 10:51:59;;;;;;;10.00;3.45;;;;;;;16.23;60.10;100151.97;4383502;32;20117;-85
2023/03/18 10:54:45;;;;;;;7.17;3.87;;;;;;;16.40;60.11;100143.25;4383298;32;20106;-84
2023/03/18 10:57:14;;;;;;;7.50;3.85;;;;;;;16.55;60.12;100145.09;4395930;32;20101;-84
2023/03/18 10:59:43;;;;;;;6.12;3.50;;;;;;;16.64;60.12;100139.41;4383025;32;20378;-85
2023/03/18 11:02:31;;;;;;;5.85;3.55;;;;;;;16.73;60.12;100133.69;4383516;32;20128;-85
2023/03/18 11:05:19;;;;;;;6.50;3.87;;;;;;;16.76;60.12;100122.16;4384186;32;20097;-84
2023/03/18 11:08:02;;;;;;;5.30;3.25;;;;;;;16.33;60.11;100128.72;4384282;32;20161;-84
2023/03/18 11:10:31;;;;;;;7.95;4.30;;;;;;;16.69;60.13;100110.28;4395607;32;20427;-84
2023/03/18 11:13:01;;;;;;;5.57;3.22;;;;;;;16.79;60.13;100122.00;4395771;32;20161;-85
2023/03/18 11:15:36;;;;;;;36.65;17.33;;;;;;;16.93;60.14;100108.16;4383007;32;20482;-86
2023/03/18 11:18:02;;;;;;;11.88;6.15;;;;;;;17.02;60.15;100099.75;4383664;32;20786;-84
2023/03/18 11:20:46;;;;;;;20.05;18.08;;;;;;;16.94;60.14;100109.84;4382809;32;20423;-84
2023/03/18 11:26:46;;;;;;;31.60;23.08;;;;;;;16.56;60.12;100103.00;4373292;32;20141;-84
2023/03/18 11:29:17;;;;;;;6.12;3.95;;;;;;;16.87;60.13;100097.03;4395378;32;20086;-85
2023/03/18 11:31:56;;;;;;;6.53;3.70;;;;;;;16.94;60.14;100089.66;4382913;32;20116;-84